createdAt,value
2017-11-28T00:01:30.643Z,3.44
2017-11-28T00:03:58.390Z,3.56
2017-11-28T00:06:25.886Z,3.62
2017-11-28T00:08:53.398Z,3.65
2017-11-28T00:11:20.937Z,3.64
2017-11-28T00:13:48.453Z,3.65
2017-11-28T00:16:15.937Z,3.65
2017-11-28T00:18:43.439Z,3.66
2017-11-28T00:21:11.312Z,3.75
2017-11-28T00:23:39.685Z,3.75
2017-11-28T00:26:07.166Z,3.80
2017-11-28T00:28:34.631Z,3.85
2017-11-28T00:31:02.181Z,3.90
2017-11-28T00:33:29.651Z,3.92
2017-11-28T00:35:57.136Z,3.94
2017-11-28T00:38:24.632Z,3.90
2017-11-28T00:40:52.111Z,3.84
2017-11-28T00:43:19.851Z,3.80
2017-11-28T00:45:47.319Z,3.80
2017-11-28T00:48:14.799Z,3.79
2017-11-28T00:50:42.287Z,3.81
2017-11-28T00:53:09.803Z,3.74
2017-11-28T00:55:37.275Z,3.75
2017-11-28T00:58:04.763Z,3.73
2017-11-28T01:00:32.559Z,3.66
2017-11-28T01:03:00.024Z,3.55
2017-11-28T01:05:27.518Z,3.49
2017-11-28T01:07:54.995Z,3.44
2017-11-28T01:10:22.536Z,3.34
2017-11-28T01:12:50.028Z,3.34
2017-11-28T01:15:17.529Z,3.32
2017-11-28T01:17:45.013Z,3.31
2017-11-28T01:20:12.494Z,3.31
2017-11-28T01:22:39.980Z,3.27
2017-11-28T01:25:07.479Z,3.27
2017-11-28T01:27:34.951Z,3.24
2017-11-28T01:30:02.765Z,3.11
2017-11-28T01:32:30.231Z,3.13
2017-11-28T01:34:57.703Z,3.03
2017-11-28T01:37:25.220Z,3.01
2017-11-28T01:39:52.699Z,2.94
2017-11-28T01:42:20.187Z,2.85
2017-11-28T01:44:47.664Z,2.83
2017-11-28T01:47:15.296Z,2.76
2017-11-28T01:49:42.799Z,2.69
2017-11-28T01:52:10.302Z,2.64
2017-11-28T01:54:38.039Z,2.55
2017-11-28T01:57:05.511Z,2.56
2017-11-28T01:59:32.980Z,2.56
2017-11-28T02:02:00.698Z,2.49
2017-11-28T02:04:28.187Z,2.45
2017-11-28T02:06:55.683Z,2.42
2017-11-28T02:09:23.396Z,2.37
2017-11-28T02:11:50.891Z,2.28
2017-11-28T02:14:18.423Z,2.17
2017-11-28T02:16:45.890Z,2.17
2017-11-28T02:19:13.367Z,2.12
2017-11-28T02:21:40.865Z,2.02
2017-11-28T02:24:08.383Z,1.98
2017-11-28T02:26:35.888Z,1.98
2017-11-28T02:29:03.456Z,1.90
2017-11-28T02:31:30.933Z,1.78
2017-11-28T02:33:58.418Z,1.78
2017-11-28T02:36:25.910Z,1.73
2017-11-28T02:38:53.388Z,1.68
2017-11-28T02:41:20.856Z,1.61
2017-11-28T02:44:06.106Z,1.57
2017-11-28T02:46:33.595Z,1.50
2017-11-28T02:52:07.222Z,1.43
2017-11-28T02:54:34.704Z,1.40
2017-11-28T02:57:02.163Z,1.41
2017-11-28T02:59:29.626Z,1.45
2017-11-28T03:01:59.009Z,1.43
2017-11-28T03:04:26.475Z,1.41
2017-11-28T03:06:53.975Z,1.43
2017-11-28T03:09:37.042Z,1.42
2017-11-28T03:12:09.966Z,1.49
2017-11-28T03:14:41.919Z,1.44
2017-11-28T03:17:10.206Z,1.42
2017-11-28T03:19:49.530Z,1.38
2017-11-28T03:22:33.669Z,1.35
2017-11-28T03:25:33.598Z,1.29
2017-11-28T03:31:05.572Z,1.34
2017-11-28T03:33:33.137Z,1.24
2017-11-28T03:36:00.593Z,1.34
2017-11-28T03:38:28.050Z,1.26
2017-11-28T03:40:55.521Z,1.21
2017-11-28T03:43:22.987Z,1.23
2017-11-28T03:46:02.235Z,1.26
2017-11-28T03:48:30.547Z,1.25
2017-11-28T03:50:58.014Z,1.40
2017-11-28T03:53:25.490Z,1.36
2017-11-28T03:55:52.950Z,1.29
2017-11-28T03:58:20.432Z,1.26
2017-11-28T04:00:47.894Z,1.38
2017-11-28T04:03:15.345Z,1.36
2017-11-28T04:05:42.817Z,1.36
2017-11-28T04:08:10.274Z,1.33
2017-11-28T04:10:37.753Z,1.58
2017-11-28T04:13:05.209Z,1.41
2017-11-28T04:15:32.671Z,1.38
2017-11-28T04:18:00.150Z,1.43
2017-11-28T04:20:27.602Z,1.43
2017-11-28T04:22:55.066Z,1.43
2017-11-28T04:25:22.541Z,1.35
2017-11-28T04:27:50.003Z,1.40
2017-11-28T04:30:17.463Z,1.50
2017-11-28T04:32:44.938Z,1.44
2017-11-28T04:35:12.404Z,1.51
2017-11-28T04:37:39.861Z,1.45
2017-11-28T04:40:07.335Z,1.47
2017-11-28T04:42:34.832Z,1.43
2017-11-28T04:45:02.295Z,1.43
2017-11-28T04:47:29.770Z,1.44
2017-11-28T04:49:57.230Z,1.46
2017-11-28T04:52:24.706Z,1.42
2017-11-28T04:54:52.172Z,1.38
2017-11-28T04:57:19.639Z,1.38
2017-11-28T04:59:47.113Z,1.38
2017-11-28T05:02:14.582Z,1.49
2017-11-28T05:04:42.060Z,1.53
2017-11-28T05:07:09.527Z,1.52
2017-11-28T05:09:36.990Z,1.58
2017-11-28T05:12:04.467Z,1.56
2017-11-28T05:14:31.934Z,1.53
2017-11-28T05:16:59.400Z,1.58
2017-11-28T05:19:26.902Z,1.60
2017-11-28T05:21:54.363Z,1.60
2017-11-28T05:24:21.826Z,1.64
2017-11-28T05:26:49.300Z,1.69
2017-11-28T05:29:16.758Z,1.66
2017-11-28T05:31:44.218Z,1.71
2017-11-28T05:34:11.708Z,1.75
2017-11-28T05:36:39.162Z,1.71
2017-11-28T05:39:06.735Z,1.76
2017-11-28T05:41:34.224Z,1.82
2017-11-28T05:44:01.743Z,1.84
2017-11-28T05:46:29.223Z,1.93
2017-11-28T05:48:56.713Z,1.97
2017-11-28T05:51:25.090Z,2.00
2017-11-28T05:53:52.550Z,2.00
2017-11-28T05:56:20.023Z,1.98
2017-11-28T05:58:47.490Z,1.97
2017-11-28T06:01:14.974Z,2.01
2017-11-28T06:03:42.442Z,1.97
2017-11-28T06:06:09.903Z,2.01
2017-11-28T06:08:38.142Z,2.07
2017-11-28T06:11:07.431Z,2.20
2017-11-28T06:13:34.886Z,2.37
2017-11-28T06:16:02.363Z,2.58
2017-11-28T06:18:29.878Z,2.73
2017-11-28T06:20:57.333Z,2.82
2017-11-28T06:23:24.807Z,2.88
2017-11-28T06:25:52.270Z,2.78
2017-11-28T06:28:19.726Z,2.72
2017-11-28T06:30:47.204Z,2.73
2017-11-28T06:33:14.666Z,2.78
2017-11-28T06:35:42.123Z,2.82
2017-11-28T06:38:09.599Z,2.82
2017-11-28T06:40:37.062Z,2.77
2017-11-28T06:43:04.523Z,2.72
2017-11-28T06:45:32.006Z,2.63
2017-11-28T06:47:59.541Z,2.67
2017-11-28T06:50:27.000Z,2.65
2017-11-28T06:52:54.473Z,2.69
2017-11-28T06:55:21.936Z,2.63
2017-11-28T06:57:49.406Z,2.63
2017-11-28T07:00:16.883Z,2.59
2017-11-28T07:02:45.146Z,2.67
2017-11-28T07:05:12.602Z,2.63
2017-11-28T07:07:40.084Z,2.59
2017-11-28T07:10:07.586Z,2.62
2017-11-28T07:12:35.046Z,2.61
2017-11-28T07:15:02.531Z,2.69
2017-11-28T07:17:29.997Z,2.78
2017-11-28T07:19:57.458Z,2.81
2017-11-28T07:22:25.245Z,2.90
2017-11-28T07:24:52.702Z,2.86
2017-11-28T07:27:20.162Z,2.88
2017-11-28T07:29:47.651Z,2.97
2017-11-28T07:32:15.121Z,3.02
2017-11-28T07:34:42.598Z,3.03
2017-11-28T07:37:10.058Z,3.13
2017-11-28T07:39:37.530Z,3.20
2017-11-28T07:42:04.991Z,3.37
2017-11-28T07:44:32.473Z,3.45
2017-11-28T07:46:59.934Z,3.50
2017-11-28T07:49:27.395Z,3.38
2017-11-28T07:51:54.875Z,3.33
2017-11-28T07:54:22.333Z,3.47
2017-11-28T07:56:49.819Z,3.56
2017-11-28T07:59:17.296Z,3.64
2017-11-28T08:01:44.769Z,3.62
2017-11-28T08:04:12.227Z,3.61
2017-11-28T08:06:39.712Z,3.80
2017-11-28T08:09:07.170Z,4.03
2017-11-28T08:11:34.626Z,4.09
2017-11-28T08:14:02.111Z,4.05
2017-11-28T08:16:29.566Z,4.19
2017-11-28T08:18:57.047Z,4.41
2017-11-28T08:21:24.503Z,4.51
2017-11-28T08:23:52.002Z,4.41
2017-11-28T08:26:19.457Z,4.54
2017-11-28T08:28:46.942Z,4.83
2017-11-28T08:31:14.415Z,5.07
2017-11-28T08:33:41.891Z,5.35
2017-11-28T08:36:09.346Z,6.12
2017-11-28T08:38:36.825Z,6.15
2017-11-28T08:41:04.303Z,6.01
2017-11-28T08:43:31.782Z,5.86
2017-11-28T08:45:59.245Z,5.96
2017-11-28T08:48:26.718Z,5.84
2017-11-28T08:50:54.173Z,5.92
2017-11-28T08:53:21.630Z,5.69
2017-11-28T08:55:49.106Z,5.30
2017-11-28T08:58:16.569Z,5.10
2017-11-28T09:00:44.030Z,5.12
2017-11-28T09:03:11.506Z,5.40
2017-11-28T09:05:38.963Z,5.50
2017-11-28T09:08:06.443Z,5.56
2017-11-28T09:10:33.901Z,5.48
2017-11-28T09:13:01.363Z,5.31
2017-11-28T09:15:28.842Z,5.15
2017-11-28T09:17:56.298Z,5.07
2017-11-28T09:20:23.750Z,5.20
2017-11-28T09:22:51.226Z,5.40
2017-11-28T09:25:18.687Z,4.93
2017-11-28T09:27:46.160Z,5.25
2017-11-28T09:30:13.641Z,4.96
2017-11-28T09:32:41.107Z,5.15
2017-11-28T09:35:08.587Z,4.87
2017-11-28T09:37:36.042Z,4.95
2017-11-28T09:40:03.505Z,5.46
2017-11-28T09:42:30.978Z,6.14
2017-11-28T09:44:58.435Z,6.03
2017-11-28T09:47:25.899Z,6.10
2017-11-28T09:49:53.379Z,5.91
2017-11-28T09:52:20.837Z,5.82
2017-11-28T09:54:48.298Z,5.73
2017-11-28T09:57:15.770Z,5.54
2017-11-28T09:59:43.229Z,5.91
2017-11-28T10:02:10.706Z,5.94
2017-11-28T10:04:38.172Z,6.14
2017-11-28T10:07:05.646Z,5.78
2017-11-28T10:09:33.139Z,6.05
2017-11-28T10:12:00.610Z,5.88
2017-11-28T10:14:28.075Z,5.68
2017-11-28T10:16:55.550Z,5.70
2017-11-28T10:19:23.121Z,5.59
2017-11-28T10:21:50.598Z,5.54
2017-11-28T10:24:18.062Z,5.65
2017-11-28T10:26:45.518Z,5.85
2017-11-28T10:29:12.995Z,5.71
2017-11-28T10:31:40.454Z,5.71
2017-11-28T10:34:07.910Z,5.70
2017-11-28T10:36:35.391Z,5.66
2017-11-28T10:39:02.850Z,5.78
2017-11-28T10:41:30.306Z,5.72
2017-11-28T10:43:57.786Z,5.66
2017-11-28T10:46:25.246Z,5.63
2017-11-28T10:48:52.702Z,5.68
2017-11-28T10:51:20.174Z,5.69
2017-11-28T10:53:47.635Z,5.60
2017-11-28T10:56:15.098Z,5.79
2017-11-28T10:58:42.586Z,5.74
2017-11-28T11:01:10.097Z,5.74
2017-11-28T11:03:37.559Z,5.91
2017-11-28T11:06:05.038Z,6.02
2017-11-28T11:08:32.502Z,6.19
2017-11-28T11:10:59.974Z,6.39
2017-11-28T11:13:27.450Z,6.47
2017-11-28T11:15:54.914Z,6.52
2017-11-28T11:18:22.370Z,6.51
2017-11-28T11:20:49.857Z,6.88
2017-11-28T11:23:17.319Z,6.88
2017-11-28T11:25:44.789Z,7.48
2017-11-28T11:28:12.285Z,7.00
2017-11-28T11:30:39.751Z,6.91
2017-11-28T11:33:07.238Z,6.71
2017-11-28T11:35:34.723Z,6.64
2017-11-28T11:38:02.195Z,6.59
2017-11-28T11:40:29.718Z,6.62
2017-11-28T11:42:57.182Z,6.26
2017-11-28T11:45:24.664Z,6.08
2017-11-28T11:47:52.118Z,6.10
2017-11-28T11:50:19.587Z,6.01
2017-11-28T11:52:47.068Z,6.06
2017-11-28T11:55:14.524Z,6.13
2017-11-28T11:57:42.029Z,6.08
2017-11-28T12:00:09.513Z,6.01
2017-11-28T12:02:36.975Z,6.15
2017-11-28T12:05:04.455Z,5.98
2017-11-28T12:07:31.938Z,6.08
2017-11-28T12:09:59.406Z,6.08
2017-11-28T12:12:26.874Z,5.95
2017-11-28T12:14:54.346Z,5.89
2017-11-28T12:17:21.862Z,5.91
2017-11-28T12:19:49.323Z,5.81
2017-11-28T12:22:16.903Z,5.85
2017-11-28T12:24:44.361Z,5.86
2017-11-28T12:27:11.826Z,5.86
2017-11-28T12:29:39.297Z,5.82
2017-11-28T12:32:06.754Z,5.82
2017-11-28T12:34:34.228Z,5.75
2017-11-28T12:37:01.686Z,5.71
2017-11-28T12:39:29.163Z,5.62
2017-11-28T12:41:56.638Z,5.70
2017-11-28T12:44:24.110Z,5.67
2017-11-28T12:46:51.571Z,5.71
2017-11-28T12:49:19.055Z,5.75
2017-11-28T12:51:46.560Z,5.68
2017-11-28T12:54:14.103Z,5.70
2017-11-28T12:56:41.563Z,5.75
2017-11-28T12:59:09.046Z,5.74
2017-11-28T13:01:36.506Z,5.88
2017-11-28T13:04:03.990Z,5.84
2017-11-28T13:06:31.454Z,5.91
2017-11-28T13:08:58.930Z,5.97
2017-11-28T13:11:26.391Z,5.89
2017-11-28T13:13:53.869Z,5.80
2017-11-28T13:16:21.327Z,5.85
2017-11-28T13:18:48.815Z,5.76
2017-11-28T13:21:16.270Z,5.74
2017-11-28T13:23:43.756Z,5.79
2017-11-28T13:26:11.218Z,5.75
2017-11-28T13:28:38.693Z,5.79
2017-11-28T13:31:06.147Z,5.70
2017-11-28T13:33:33.622Z,5.70
2017-11-28T13:36:01.129Z,5.60
2017-11-28T13:38:28.601Z,5.61
2017-11-28T13:40:56.073Z,5.62
2017-11-28T13:43:23.551Z,5.56
2017-11-28T13:45:51.029Z,5.55
2017-11-28T13:48:18.502Z,5.54
2017-11-28T13:50:45.958Z,5.58
2017-11-28T13:53:13.429Z,5.56
2017-11-28T13:55:40.993Z,5.52
2017-11-28T13:58:08.474Z,5.61
2017-11-28T14:00:35.943Z,5.56
2017-11-28T14:03:03.414Z,5.58
2017-11-28T14:05:30.874Z,5.56
2017-11-28T14:07:58.355Z,5.58
2017-11-28T14:10:25.810Z,5.49
2017-11-28T14:12:53.291Z,5.49
2017-11-28T14:15:20.755Z,5.53
2017-11-28T14:17:48.309Z,5.51
2017-11-28T14:20:15.765Z,5.53
2017-11-28T14:22:53.154Z,5.57
2017-11-28T14:28:26.154Z,5.35
2017-11-28T14:30:59.295Z,5.24
2017-11-28T14:33:26.778Z,5.29
2017-11-28T14:39:01.279Z,5.18
2017-11-28T14:41:30.662Z,5.20
2017-11-28T14:44:13.896Z,5.17
2017-11-28T14:46:41.366Z,5.12
2017-11-28T14:49:08.866Z,5.13
2017-11-28T14:54:46.886Z,5.07
2017-11-28T14:57:19.902Z,5.01
2017-11-28T14:59:52.917Z,4.97
2017-11-28T15:02:25.902Z,4.97
2017-11-28T15:04:58.870Z,4.90
2017-11-28T15:10:33.758Z,4.84
2017-11-28T15:13:06.941Z,4.81
2017-11-28T15:18:40.399Z,4.79
2017-11-28T15:21:07.874Z,4.74
2017-11-28T15:23:49.199Z,4.73
2017-11-28T15:29:30.094Z,4.76
2017-11-28T15:31:57.560Z,4.78
2017-11-28T15:34:25.056Z,4.79
2017-11-28T15:36:52.518Z,4.78
2017-11-28T15:39:19.991Z,4.80
2017-11-28T15:41:47.455Z,4.79
2017-11-28T15:44:14.931Z,4.78
2017-11-28T15:46:42.391Z,4.72
2017-11-28T15:49:09.866Z,4.68
2017-11-28T15:51:37.322Z,4.67
2017-11-28T15:54:04.807Z,4.67
2017-11-28T15:56:32.286Z,4.61
2017-11-28T15:58:59.766Z,4.58
2017-11-28T16:01:27.230Z,4.53
2017-11-28T16:03:54.706Z,4.49
2017-11-28T16:06:22.162Z,4.53
2017-11-28T16:08:49.646Z,4.52
2017-11-28T16:11:17.108Z,4.50
2017-11-28T16:13:44.582Z,4.50
2017-11-28T16:16:12.056Z,4.48
2017-11-28T16:18:39.526Z,4.46
2017-11-28T16:21:07.026Z,4.38
2017-11-28T16:23:34.487Z,4.36
2017-11-28T16:26:01.977Z,4.42
2017-11-28T16:28:29.447Z,4.34
2017-11-28T16:30:56.927Z,4.30
2017-11-28T16:33:24.390Z,4.25
2017-11-28T16:35:51.862Z,4.28
2017-11-28T16:38:19.322Z,4.33
2017-11-28T16:40:46.803Z,4.38
2017-11-28T16:43:14.258Z,4.35
2017-11-28T16:45:41.739Z,4.36
2017-11-28T16:48:09.198Z,4.43
2017-11-28T16:50:36.675Z,4.42
2017-11-28T16:53:04.135Z,4.37
2017-11-28T16:55:31.680Z,4.36
2017-11-28T16:57:59.134Z,4.34
2017-11-28T17:00:26.610Z,4.29
2017-11-28T17:02:54.074Z,4.29
2017-11-28T17:05:21.550Z,4.22
2017-11-28T17:07:49.015Z,4.25
2017-11-28T17:10:16.497Z,4.22
2017-11-28T17:12:43.980Z,4.24
2017-11-28T17:15:11.458Z,4.26
2017-11-28T17:17:38.943Z,4.21
2017-11-28T17:20:06.430Z,4.22
2017-11-28T17:22:33.890Z,4.25
2017-11-28T17:25:01.387Z,4.27
2017-11-28T17:27:28.842Z,4.25
2017-11-28T17:29:56.338Z,4.20
2017-11-28T17:32:23.793Z,4.23
2017-11-28T17:34:51.270Z,4.24
2017-11-28T17:37:18.726Z,4.34
2017-11-28T17:39:46.229Z,4.29
2017-11-28T17:42:13.732Z,4.29
2017-11-28T17:44:41.267Z,4.27
2017-11-28T17:47:08.726Z,4.26
2017-11-28T17:49:36.207Z,4.27
2017-11-28T17:52:03.666Z,4.25
2017-11-28T17:54:31.144Z,4.37
2017-11-28T17:56:58.609Z,4.40
2017-11-28T17:59:26.108Z,4.44
2017-11-28T18:01:53.571Z,4.43
2017-11-28T18:04:21.046Z,4.38
2017-11-28T18:06:48.501Z,4.39
2017-11-28T18:09:15.978Z,4.41
2017-11-28T18:11:43.434Z,4.42
2017-11-28T18:14:10.910Z,4.38
2017-11-28T18:16:38.385Z,4.36
2017-11-28T18:19:05.890Z,4.36
2017-11-28T18:21:33.378Z,4.40
2017-11-28T18:24:00.838Z,4.30
2017-11-28T18:26:28.315Z,4.38
2017-11-28T18:28:55.790Z,4.30
2017-11-28T18:31:23.272Z,4.26
2017-11-28T18:33:50.735Z,4.24
2017-11-28T18:36:18.211Z,4.30
2017-11-28T18:38:45.670Z,4.17
2017-11-28T18:41:13.145Z,4.14
2017-11-28T18:43:40.625Z,4.17
2017-11-28T18:46:08.088Z,4.16
2017-11-28T18:48:35.563Z,4.10
2017-11-28T18:51:03.027Z,4.03
2017-11-28T18:53:30.510Z,4.15
2017-11-28T18:55:57.971Z,4.06
2017-11-28T18:58:25.451Z,4.04
2017-11-28T19:00:52.914Z,4.01
2017-11-28T19:03:20.390Z,3.96
2017-11-28T19:05:47.924Z,3.99
2017-11-28T19:08:15.518Z,4.01
2017-11-28T19:10:42.983Z,3.98
2017-11-28T19:13:10.481Z,4.00
2017-11-28T19:15:37.951Z,3.99
2017-11-28T19:18:05.436Z,3.96
2017-11-28T19:20:32.910Z,3.94
2017-11-28T19:23:00.414Z,3.96
2017-11-28T19:25:27.888Z,3.98
2017-11-28T19:27:58.577Z,3.97
2017-11-28T19:30:29.440Z,3.92
2017-11-28T19:33:00.128Z,3.90
2017-11-28T19:35:30.964Z,3.83
2017-11-28T19:38:01.597Z,3.86
2017-11-28T19:40:32.379Z,3.83
2017-11-28T19:43:04.042Z,3.78
2017-11-28T19:45:34.940Z,3.78
2017-11-28T19:48:05.686Z,3.77
2017-11-28T19:50:36.343Z,3.77
2017-11-28T19:53:07.299Z,3.79
2017-11-28T19:55:37.832Z,3.75
2017-11-28T19:58:08.582Z,3.76
2017-11-28T20:00:39.592Z,3.73
2017-11-28T20:03:10.293Z,3.72
2017-11-28T20:05:41.114Z,3.72
2017-11-28T20:08:12.025Z,3.73
2017-11-28T20:10:42.865Z,3.79
2017-11-28T20:13:13.880Z,3.83
2017-11-28T20:15:44.593Z,3.85
2017-11-28T20:18:15.269Z,3.80
2017-11-28T20:20:46.388Z,4.11
2017-11-28T20:23:17.358Z,4.06
2017-11-28T20:25:49.090Z,4.04
2017-11-28T20:28:19.887Z,3.80
2017-11-28T20:30:50.787Z,3.82
2017-11-28T20:33:21.536Z,3.63
2017-11-28T20:35:52.164Z,3.57
2017-11-28T20:38:23.093Z,3.61
2017-11-28T20:40:53.687Z,3.65
2017-11-28T20:43:24.360Z,3.60
2017-11-28T20:45:54.838Z,3.60
2017-11-28T20:48:25.770Z,3.66
2017-11-28T20:50:56.292Z,3.63
2017-11-28T20:53:26.955Z,3.71
2017-11-28T20:55:57.497Z,3.71
2017-11-28T20:58:27.572Z,3.65
2017-11-28T21:00:56.881Z,3.58
2017-11-28T21:03:24.630Z,3.58
2017-11-28T21:05:52.112Z,3.64
2017-11-28T21:08:19.598Z,3.74
2017-11-28T21:10:47.118Z,3.89
2017-11-28T21:13:14.554Z,3.86
2017-11-28T21:15:42.020Z,3.85
2017-11-28T21:18:09.526Z,3.89
2017-11-28T21:20:36.994Z,3.82
2017-11-28T21:23:04.470Z,3.83
2017-11-28T21:25:31.927Z,3.77
2017-11-28T21:27:59.401Z,3.78
2017-11-28T21:30:26.870Z,3.76
2017-11-28T21:32:54.366Z,3.79
2017-11-28T21:35:21.831Z,3.77
2017-11-28T21:37:49.310Z,3.77
2017-11-28T21:40:16.777Z,3.79
2017-11-28T21:42:44.258Z,3.76
2017-11-28T21:45:11.720Z,3.73
2017-11-28T21:47:39.177Z,3.70
2017-11-28T21:50:06.655Z,3.69
2017-11-28T21:52:34.122Z,3.70
2017-11-28T21:55:01.604Z,3.66
2017-11-28T21:57:29.066Z,3.68
2017-11-28T21:59:56.562Z,3.74
2017-11-28T22:02:24.027Z,3.65
2017-11-28T22:04:51.506Z,3.65
2017-11-28T22:07:19.002Z,3.70
2017-11-28T22:09:46.495Z,3.69
2017-11-28T22:12:13.954Z,3.65
2017-11-28T22:14:41.438Z,3.66
2017-11-28T22:17:08.899Z,3.65
2017-11-28T22:19:36.374Z,3.59
2017-11-28T22:22:03.860Z,3.50
2017-11-28T22:24:31.341Z,3.46
2017-11-28T22:26:58.806Z,3.41
2017-11-28T22:29:26.300Z,3.36
2017-11-28T22:31:53.760Z,3.26
2017-11-28T22:34:21.234Z,3.07
2017-11-28T22:36:48.691Z,3.02
2017-11-28T22:39:16.166Z,2.95
2017-11-28T22:41:43.621Z,2.92
2017-11-28T22:44:11.102Z,2.92
2017-11-28T22:46:38.600Z,2.93
2017-11-28T22:49:06.098Z,2.93
2017-11-28T22:51:33.559Z,2.90
2017-11-28T22:54:01.046Z,2.87
2017-11-28T22:56:28.505Z,2.84
2017-11-28T22:58:55.994Z,2.81
2017-11-28T23:01:23.450Z,2.80
2017-11-28T23:03:50.921Z,2.74
2017-11-28T23:06:18.378Z,2.69
2017-11-28T23:08:45.867Z,2.67
2017-11-28T23:11:13.326Z,2.67
2017-11-28T23:13:52.699Z,2.67
2017-11-28T23:16:20.168Z,2.68
2017-11-28T23:18:47.648Z,2.69
2017-11-28T23:21:15.123Z,2.66
2017-11-28T23:23:42.598Z,2.65
2017-11-28T23:26:10.069Z,2.63
2017-11-28T23:28:37.556Z,2.64
2017-11-28T23:31:05.019Z,2.65
2017-11-28T23:33:32.507Z,2.66
2017-11-28T23:36:00.007Z,2.67
2017-11-28T23:38:27.469Z,2.69
2017-11-28T23:40:54.960Z,2.87
2017-11-28T23:43:22.419Z,2.75
2017-11-28T23:45:49.903Z,2.70
2017-11-28T23:48:17.375Z,2.68
2017-11-28T23:50:44.862Z,2.71
2017-11-28T23:53:12.332Z,2.66
2017-11-28T23:55:39.822Z,2.76
2017-11-28T23:58:07.278Z,2.75
